sensor_id;sensor_type;location;lat;lon;timestamp;temperature;humidity
16976;DHT22;8604;48.148;-1.786;2023-04-24T00:01:10;10.10;99.90
16976;DHT22;8604;48.148;-1.786;2023-04-24T00:03:39;10.10;99.90
16976;DHT22;8604;48.148;-1.786;2023-04-24T00:06:08;10.10;99.90
16976;DHT22;8604;48.148;-1.786;2023-04-24T00:08:36;10.10;99.90
16976;DHT22;8604;48.148;-1.786;2023-04-24T00:11:06;10.00;99.90
16976;DHT22;8604;48.148;-1.786;2023-04-24T00:13:34;10.00;99.90
16976;DHT22;8604;48.148;-1.786;2023-04-24T00:16:03;10.00;99.90
16976;DHT22;8604;48.148;-1.786;2023-04-24T00:18:32;10.00;99.90
16976;DHT22;8604;48.148;-1.786;2023-04-24T00:21:00;10.00;99.90
16976;DHT22;8604;48.148;-1.786;2023-04-24T00:23:30;9.90;99.90
16976;DHT22;8604;48.148;-1.786;2023-04-24T00:25:58;10.00;99.90
16976;DHT22;8604;48.148;-1.786;2023-04-24T00:28:28;10.00;99.90
16976;DHT22;8604;48.148;-1.786;2023-04-24T00:30:56;10.00;99.90
16976;DHT22;8604;48.148;-1.786;2023-04-24T00:33:25;9.90;99.90
16976;DHT22;8604;48.148;-1.786;2023-04-24T00:35:53;9.90;99.90
16976;DHT22;8604;48.148;-1.786;2023-04-24T00:38:21;9.80;99.90
16976;DHT22;8604;48.148;-1.786;2023-04-24T00:40:50;9.80;99.90
16976;DHT22;8604;48.148;-1.786;2023-04-24T00:43:18;9.80;99.90
16976;DHT22;8604;48.148;-1.786;2023-04-24T00:45:48;9.80;99.90
16976;DHT22;8604;48.148;-1.786;2023-04-24T00:48:16;9.80;99.90
16976;DHT22;8604;48.148;-1.786;2023-04-24T00:50:45;9.80;99.90
16976;DHT22;8604;48.148;-1.786;2023-04-24T00:53:13;9.70;99.90
16976;DHT22;8604;48.148;-1.786;2023-04-24T00:55:42;9.70;99.90
16976;DHT22;8604;48.148;-1.786;2023-04-24T00:58:11;9.70;99.90
16976;DHT22;8604;48.148;-1.786;2023-04-24T01:00:40;9.70;99.90
16976;DHT22;8604;48.148;-1.786;2023-04-24T01:03:10;9.70;99.90
16976;DHT22;8604;48.148;-1.786;2023-04-24T01:05:39;9.70;99.90
16976;DHT22;8604;48.148;-1.786;2023-04-24T01:08:08;9.60;99.90
16976;DHT22;8604;48.148;-1.786;2023-04-24T01:10:37;9.60;99.90
16976;DHT22;8604;48.148;-1.786;2023-04-24T01:13:07;9.60;99.90
16976;DHT22;8604;48.148;-1.786;2023-04-24T01:15:36;9.60;99.90
16976;DHT22;8604;48.148;-1.786;2023-04-24T01:18:04;9.60;99.90
16976;DHT22;8604;48.148;-1.786;2023-04-24T01:20:35;9.70;99.90
16976;DHT22;8604;48.148;-1.786;2023-04-24T01:23:08;9.70;99.90
16976;DHT22;8604;48.148;-1.786;2023-04-24T01:25:37;9.60;99.90
16976;DHT22;8604;48.148;-1.786;2023-04-24T01:28:06;9.60;99.90
16976;DHT22;8604;48.148;-1.786;2023-04-24T01:30:34;9.60;99.90
16976;DHT22;8604;48.148;-1.786;2023-04-24T01:33:02;9.60;99.90
16976;DHT22;8604;48.148;-1.786;2023-04-24T01:35:31;9.60;99.90
16976;DHT22;8604;48.148;-1.786;2023-04-24T01:38:00;9.60;99.90
16976;DHT22;8604;48.148;-1.786;2023-04-24T01:40:29;9.60;99.90
16976;DHT22;8604;48.148;-1.786;2023-04-24T01:42:58;9.60;99.90
16976;DHT22;8604;48.148;-1.786;2023-04-24T01:45:27;9.60;99.90
16976;DHT22;8604;48.148;-1.786;2023-04-24T01:47:56;9.60;99.90
16976;DHT22;8604;48.148;-1.786;2023-04-24T01:50:24;9.60;99.90
16976;DHT22;8604;48.148;-1.786;2023-04-24T01:52:53;9.60;99.90
16976;DHT22;8604;48.148;-1.786;2023-04-24T01:55:21;9.60;99.90
16976;DHT22;8604;48.148;-1.786;2023-04-24T01:57:52;9.50;99.90
16976;DHT22;8604;48.148;-1.786;2023-04-24T02:00:22;9.50;99.90
16976;DHT22;8604;48.148;-1.786;2023-04-24T02:02:52;9.50;99.90
16976;DHT22;8604;48.148;-1.786;2023-04-24T02:05:21;9.50;99.90
16976;DHT22;8604;48.148;-1.786;2023-04-24T02:07:49;9.50;99.90
16976;DHT22;8604;48.148;-1.786;2023-04-24T02:10:18;9.50;99.90
16976;DHT22;8604;48.148;-1.786;2023-04-24T02:12:46;9.50;99.90
16976;DHT22;8604;48.148;-1.786;2023-04-24T02:15:16;9.50;99.90
16976;DHT22;8604;48.148;-1.786;2023-04-24T02:17:44;9.40;99.90
16976;DHT22;8604;48.148;-1.786;2023-04-24T02:20:13;9.40;99.90
16976;DHT22;8604;48.148;-1.786;2023-04-24T02:22:41;9.50;99.90
16976;DHT22;8604;48.148;-1.786;2023-04-24T02:25:10;9.40;99.90
16976;DHT22;8604;48.148;-1.786;2023-04-24T02:27:38;9.40;99.90
16976;DHT22;8604;48.148;-1.786;2023-04-24T02:30:07;9.40;99.90
16976;DHT22;8604;48.148;-1.786;2023-04-24T02:32:37;9.40;99.90
16976;DHT22;8604;48.148;-1.786;2023-04-24T02:35:06;9.40;99.90
16976;DHT22;8604;48.148;-1.786;2023-04-24T02:37:35;9.40;99.90
16976;DHT22;8604;48.148;-1.786;2023-04-24T02:40:04;9.40;99.90
16976;DHT22;8604;48.148;-1.786;2023-04-24T02:42:32;9.40;99.90
16976;DHT22;8604;48.148;-1.786;2023-04-24T02:45:01;9.40;99.90
16976;DHT22;8604;48.148;-1.786;2023-04-24T02:47:30;9.40;99.90
16976;DHT22;8604;48.148;-1.786;2023-04-24T02:50:01;9.40;99.90
16976;DHT22;8604;48.148;-1.786;2023-04-24T02:52:29;9.40;99.90
16976;DHT22;8604;48.148;-1.786;2023-04-24T02:54:58;9.40;99.90
16976;DHT22;8604;48.148;-1.786;2023-04-24T02:57:26;9.40;99.90
16976;DHT22;8604;48.148;-1.786;2023-04-24T02:59:54;9.40;99.90
16976;DHT22;8604;48.148;-1.786;2023-04-24T03:02:22;9.40;99.90
16976;DHT22;8604;48.148;-1.786;2023-04-24T03:04:51;9.40;99.90
16976;DHT22;8604;48.148;-1.786;2023-04-24T03:07:21;9.40;99.90
16976;DHT22;8604;48.148;-1.786;2023-04-24T03:09:50;9.40;99.90
16976;DHT22;8604;48.148;-1.786;2023-04-24T03:12:18;9.40;99.90
16976;DHT22;8604;48.148;-1.786;2023-04-24T03:14:46;9.40;99.90
16976;DHT22;8604;48.148;-1.786;2023-04-24T03:17:14;9.40;99.90
16976;DHT22;8604;48.148;-1.786;2023-04-24T03:19:43;9.30;99.90
16976;DHT22;8604;48.148;-1.786;2023-04-24T03:22:12;9.30;99.90
16976;DHT22;8604;48.148;-1.786;2023-04-24T03:24:42;9.30;99.90
16976;DHT22;8604;48.148;-1.786;2023-04-24T03:27:13;9.30;99.90
16976;DHT22;8604;48.148;-1.786;2023-04-24T03:30:02;9.30;99.90
16976;DHT22;8604;48.148;-1.786;2023-04-24T03:32:45;9.30;99.90
16976;DHT22;8604;48.148;-1.786;2023-04-24T03:35:19;9.30;99.90
16976;DHT22;8604;48.148;-1.786;2023-04-24T03:37:48;9.30;99.90
16976;DHT22;8604;48.148;-1.786;2023-04-24T03:40:41;9.30;99.90
16976;DHT22;8604;48.148;-1.786;2023-04-24T03:43:33;9.30;99.90
16976;DHT22;8604;48.148;-1.786;2023-04-24T03:46:03;9.30;99.90
16976;DHT22;8604;48.148;-1.786;2023-04-24T03:48:36;9.30;99.90
16976;DHT22;8604;48.148;-1.786;2023-04-24T03:51:05;9.30;99.90
16976;DHT22;8604;48.148;-1.786;2023-04-24T03:53:35;9.30;99.90
16976;DHT22;8604;48.148;-1.786;2023-04-24T03:56:05;9.30;99.90
16976;DHT22;8604;48.148;-1.786;2023-04-24T03:58:34;9.30;99.90
16976;DHT22;8604;48.148;-1.786;2023-04-24T04:01:03;9.30;99.90
16976;DHT22;8604;48.148;-1.786;2023-04-24T04:03:35;9.30;99.90
16976;DHT22;8604;48.148;-1.786;2023-04-24T04:06:04;9.30;99.90
16976;DHT22;8604;48.148;-1.786;2023-04-24T04:08:33;9.30;99.90
16976;DHT22;8604;48.148;-1.786;2023-04-24T04:11:02;9.20;99.90
16976;DHT22;8604;48.148;-1.786;2023-04-24T04:13:33;9.30;99.90
16976;DHT22;8604;48.148;-1.786;2023-04-24T04:16:01;9.30;99.90
16976;DHT22;8604;48.148;-1.786;2023-04-24T04:18:30;9.20;99.90
16976;DHT22;8604;48.148;-1.786;2023-04-24T04:20:58;9.20;99.90
16976;DHT22;8604;48.148;-1.786;2023-04-24T04:23:28;9.20;99.90
16976;DHT22;8604;48.148;-1.786;2023-04-24T04:26:08;9.30;99.90
16976;DHT22;8604;48.148;-1.786;2023-04-24T04:28:52;9.30;99.90
16976;DHT22;8604;48.148;-1.786;2023-04-24T04:31:20;9.30;99.90
16976;DHT22;8604;48.148;-1.786;2023-04-24T04:33:50;9.30;99.90
16976;DHT22;8604;48.148;-1.786;2023-04-24T04:36:19;9.30;99.90
16976;DHT22;8604;48.148;-1.786;2023-04-24T04:38:52;9.30;99.90
16976;DHT22;8604;48.148;-1.786;2023-04-24T04:41:41;9.30;99.90
16976;DHT22;8604;48.148;-1.786;2023-04-24T04:44:11;9.30;99.90
16976;DHT22;8604;48.148;-1.786;2023-04-24T04:46:41;9.30;99.90
16976;DHT22;8604;48.148;-1.786;2023-04-24T04:49:20;9.30;99.90
16976;DHT22;8604;48.148;-1.786;2023-04-24T04:51:50;9.30;99.90
16976;DHT22;8604;48.148;-1.786;2023-04-24T04:54:24;9.30;99.90
16976;DHT22;8604;48.148;-1.786;2023-04-24T04:56:52;9.20;99.90
16976;DHT22;8604;48.148;-1.786;2023-04-24T04:59:22;9.20;99.90
16976;DHT22;8604;48.148;-1.786;2023-04-24T05:01:57;9.20;99.90
16976;DHT22;8604;48.148;-1.786;2023-04-24T05:04:26;9.20;99.90
16976;DHT22;8604;48.148;-1.786;2023-04-24T05:06:54;9.30;99.90
16976;DHT22;8604;48.148;-1.786;2023-04-24T05:09:24;9.20;99.90
16976;DHT22;8604;48.148;-1.786;2023-04-24T05:11:57;9.30;99.90
16976;DHT22;8604;48.148;-1.786;2023-04-24T05:14:32;9.20;99.90
16976;DHT22;8604;48.148;-1.786;2023-04-24T05:17:01;9.30;99.90
16976;DHT22;8604;48.148;-1.786;2023-04-24T05:19:31;9.20;99.90
16976;DHT22;8604;48.148;-1.786;2023-04-24T05:22:03;9.20;99.90
16976;DHT22;8604;48.148;-1.786;2023-04-24T05:24:37;9.20;99.90
16976;DHT22;8604;48.148;-1.786;2023-04-24T05:27:13;9.20;99.90
16976;DHT22;8604;48.148;-1.786;2023-04-24T05:29:43;9.20;99.90
16976;DHT22;8604;48.148;-1.786;2023-04-24T05:32:13;9.20;99.90
16976;DHT22;8604;48.148;-1.786;2023-04-24T05:34:41;9.20;99.90
16976;DHT22;8604;48.148;-1.786;2023-04-24T05:37:09;9.20;99.90
16976;DHT22;8604;48.148;-1.786;2023-04-24T05:39:38;9.20;99.90
16976;DHT22;8604;48.148;-1.786;2023-04-24T05:42:08;9.20;99.90
16976;DHT22;8604;48.148;-1.786;2023-04-24T05:44:36;9.20;99.90
16976;DHT22;8604;48.148;-1.786;2023-04-24T05:52:06;9.10;99.90
16976;DHT22;8604;48.148;-1.786;2023-04-24T05:54:53;9.10;99.90
16976;DHT22;8604;48.148;-1.786;2023-04-24T05:57:42;9.10;99.90
16976;DHT22;8604;48.148;-1.786;2023-04-24T06:00:18;9.00;99.90
16976;DHT22;8604;48.148;-1.786;2023-04-24T06:03:22;9.00;99.90
16976;DHT22;8604;48.148;-1.786;2023-04-24T06:06:23;9.10;99.90
16976;DHT22;8604;48.148;-1.786;2023-04-24T06:10:19;9.00;99.90
16976;DHT22;8604;48.148;-1.786;2023-04-24T06:13:05;9.10;99.90
16976;DHT22;8604;48.148;-1.786;2023-04-24T06:16:25;9.10;99.90
16976;DHT22;8604;48.148;-1.786;2023-04-24T06:19:06;9.00;99.90
16976;DHT22;8604;48.148;-1.786;2023-04-24T06:21:54;9.10;99.90
16976;DHT22;8604;48.148;-1.786;2023-04-24T06:28:14;9.10;99.90
16976;DHT22;8604;48.148;-1.786;2023-04-24T06:30:55;9.10;99.90
16976;DHT22;8604;48.148;-1.786;2023-04-24T06:33:55;9.10;99.90
16976;DHT22;8604;48.148;-1.786;2023-04-24T06:37:07;9.10;99.90
16976;DHT22;8604;48.148;-1.786;2023-04-24T06:43:27;9.50;99.90
16976;DHT22;8604;48.148;-1.786;2023-04-24T06:46:06;10.00;99.90
16976;DHT22;8604;48.148;-1.786;2023-04-24T06:48:53;10.40;99.90
16976;DHT22;8604;48.148;-1.786;2023-04-24T06:51:23;10.90;99.90
16976;DHT22;8604;48.148;-1.786;2023-04-24T06:54:10;11.30;99.90
16976;DHT22;8604;48.148;-1.786;2023-04-24T06:56:39;11.70;99.90
16976;DHT22;8604;48.148;-1.786;2023-04-24T06:59:09;12.10;99.90
16976;DHT22;8604;48.148;-1.786;2023-04-24T07:05:19;12.50;99.90
16976;DHT22;8604;48.148;-1.786;2023-04-24T07:07:48;12.60;99.90
16976;DHT22;8604;48.148;-1.786;2023-04-24T07:10:17;12.70;99.90
16976;DHT22;8604;48.148;-1.786;2023-04-24T07:12:47;12.80;99.90
16976;DHT22;8604;48.148;-1.786;2023-04-24T07:15:17;12.90;99.90
16976;DHT22;8604;48.148;-1.786;2023-04-24T07:17:45;13.20;99.90
16976;DHT22;8604;48.148;-1.786;2023-04-24T07:20:14;13.50;99.90
16976;DHT22;8604;48.148;-1.786;2023-04-24T07:22:43;13.70;99.90
16976;DHT22;8604;48.148;-1.786;2023-04-24T07:25:11;14.10;99.90
16976;DHT22;8604;48.148;-1.786;2023-04-24T07:27:40;14.30;99.90
16976;DHT22;8604;48.148;-1.786;2023-04-24T07:30:09;14.50;99.90
16976;DHT22;8604;48.148;-1.786;2023-04-24T07:32:39;14.60;99.90
16976;DHT22;8604;48.148;-1.786;2023-04-24T07:35:08;14.70;99.90
16976;DHT22;8604;48.148;-1.786;2023-04-24T07:37:37;14.70;99.90
16976;DHT22;8604;48.148;-1.786;2023-04-24T07:40:07;15.00;99.90
16976;DHT22;8604;48.148;-1.786;2023-04-24T07:42:35;15.30;99.90
16976;DHT22;8604;48.148;-1.786;2023-04-24T07:45:06;15.20;99.90
16976;DHT22;8604;48.148;-1.786;2023-04-24T07:47:34;15.60;99.90
16976;DHT22;8604;48.148;-1.786;2023-04-24T07:50:06;16.10;99.90
16976;DHT22;8604;48.148;-1.786;2023-04-24T07:52:34;16.70;99.90
16976;DHT22;8604;48.148;-1.786;2023-04-24T07:55:04;17.10;99.90
16976;DHT22;8604;48.148;-1.786;2023-04-24T07:57:32;17.50;99.90
16976;DHT22;8604;48.148;-1.786;2023-04-24T08:00:01;17.50;99.90
16976;DHT22;8604;48.148;-1.786;2023-04-24T08:02:37;17.90;99.90
16976;DHT22;8604;48.148;-1.786;2023-04-24T08:05:10;18.30;99.90
16976;DHT22;8604;48.148;-1.786;2023-04-24T08:07:39;18.70;99.90
16976;DHT22;8604;48.148;-1.786;2023-04-24T08:10:10;19.20;99.90
16976;DHT22;8604;48.148;-1.786;2023-04-24T08:12:41;19.40;99.90
16976;DHT22;8604;48.148;-1.786;2023-04-24T08:15:10;19.40;99.90
16976;DHT22;8604;48.148;-1.786;2023-04-24T08:17:39;19.50;99.90
16976;DHT22;8604;48.148;-1.786;2023-04-24T08:20:10;19.80;99.90
16976;DHT22;8604;48.148;-1.786;2023-04-24T08:22:41;20.00;99.90
16976;DHT22;8604;48.148;-1.786;2023-04-24T08:25:10;19.70;99.90
16976;DHT22;8604;48.148;-1.786;2023-04-24T08:27:39;19.40;99.90
16976;DHT22;8604;48.148;-1.786;2023-04-24T08:30:08;19.70;99.90
16976;DHT22;8604;48.148;-1.786;2023-04-24T08:32:36;20.10;99.90
16976;DHT22;8604;48.148;-1.786;2023-04-24T08:35:06;20.70;99.90
16976;DHT22;8604;48.148;-1.786;2023-04-24T08:37:37;21.20;99.90
16976;DHT22;8604;48.148;-1.786;2023-04-24T08:40:10;21.70;99.90
16976;DHT22;8604;48.148;-1.786;2023-04-24T08:42:41;21.30;99.90
16976;DHT22;8604;48.148;-1.786;2023-04-24T08:45:11;21.10;99.90
16976;DHT22;8604;48.148;-1.786;2023-04-24T08:47:40;21.40;99.90
16976;DHT22;8604;48.148;-1.786;2023-04-24T08:50:11;21.30;99.90
16976;DHT22;8604;48.148;-1.786;2023-04-24T08:52:42;20.90;99.90
16976;DHT22;8604;48.148;-1.786;2023-04-24T08:55:10;20.30;99.90
16976;DHT22;8604;48.148;-1.786;2023-04-24T08:57:39;20.80;99.90
16976;DHT22;8604;48.148;-1.786;2023-04-24T09:00:08;21.30;99.90
16976;DHT22;8604;48.148;-1.786;2023-04-24T09:02:42;21.00;99.90
16976;DHT22;8604;48.148;-1.786;2023-04-24T09:05:12;20.50;99.90
16976;DHT22;8604;48.148;-1.786;2023-04-24T09:07:45;20.30;99.90
16976;DHT22;8604;48.148;-1.786;2023-04-24T09:10:16;20.20;99.90
16976;DHT22;8604;48.148;-1.786;2023-04-24T09:12:45;20.60;99.90
16976;DHT22;8604;48.148;-1.786;2023-04-24T09:15:15;21.20;99.90
16976;DHT22;8604;48.148;-1.786;2023-04-24T09:17:45;21.70;99.90
16976;DHT22;8604;48.148;-1.786;2023-04-24T09:20:14;22.10;99.90
16976;DHT22;8604;48.148;-1.786;2023-04-24T09:22:45;22.30;99.90
16976;DHT22;8604;48.148;-1.786;2023-04-24T09:25:13;21.80;99.90
16976;DHT22;8604;48.148;-1.786;2023-04-24T09:27:43;21.70;99.90
16976;DHT22;8604;48.148;-1.786;2023-04-24T09:30:13;21.40;99.90
16976;DHT22;8604;48.148;-1.786;2023-04-24T09:32:42;20.80;99.90
16976;DHT22;8604;48.148;-1.786;2023-04-24T09:35:12;20.30;99.90
16976;DHT22;8604;48.148;-1.786;2023-04-24T09:37:42;19.50;99.90
16976;DHT22;8604;48.148;-1.786;2023-04-24T09:40:14;19.00;99.90
16976;DHT22;8604;48.148;-1.786;2023-04-24T09:42:51;18.40;99.90
16976;DHT22;8604;48.148;-1.786;2023-04-24T09:45:20;17.90;99.90
16976;DHT22;8604;48.148;-1.786;2023-04-24T09:47:52;17.90;99.90
16976;DHT22;8604;48.148;-1.786;2023-04-24T09:50:22;18.30;99.90
16976;DHT22;8604;48.148;-1.786;2023-04-24T09:52:57;18.60;99.90
16976;DHT22;8604;48.148;-1.786;2023-04-24T09:55:27;18.80;99.90
16976;DHT22;8604;48.148;-1.786;2023-04-24T09:57:57;19.30;99.90
16976;DHT22;8604;48.148;-1.786;2023-04-24T10:00:29;19.40;99.90
16976;DHT22;8604;48.148;-1.786;2023-04-24T10:02:59;20.10;99.90
16976;DHT22;8604;48.148;-1.786;2023-04-24T10:05:29;20.00;99.90
16976;DHT22;8604;48.148;-1.786;2023-04-24T10:08:02;20.00;99.90
16976;DHT22;8604;48.148;-1.786;2023-04-24T10:10:35;19.90;99.90
16976;DHT22;8604;48.148;-1.786;2023-04-24T10:13:05;19.60;99.90
16976;DHT22;8604;48.148;-1.786;2023-04-24T10:15:35;19.50;99.90
16976;DHT22;8604;48.148;-1.786;2023-04-24T10:18:05;19.40;99.90
16976;DHT22;8604;48.148;-1.786;2023-04-24T10:20:36;19.00;99.90
16976;DHT22;8604;48.148;-1.786;2023-04-24T10:23:05;18.70;99.90
16976;DHT22;8604;48.148;-1.786;2023-04-24T10:25:35;18.70;99.90
16976;DHT22;8604;48.148;-1.786;2023-04-24T10:28:04;18.40;99.90
16976;DHT22;8604;48.148;-1.786;2023-04-24T10:30:37;18.20;99.90
16976;DHT22;8604;48.148;-1.786;2023-04-24T10:33:07;18.40;99.90
16976;DHT22;8604;48.148;-1.786;2023-04-24T10:35:39;19.30;99.90
16976;DHT22;8604;48.148;-1.786;2023-04-24T10:38:12;19.80;99.90
16976;DHT22;8604;48.148;-1.786;2023-04-24T10:40:43;19.80;99.90
16976;DHT22;8604;48.148;-1.786;2023-04-24T10:43:16;20.00;99.90
16976;DHT22;8604;48.148;-1.786;2023-04-24T10:46:00;20.00;99.90
16976;DHT22;8604;48.148;-1.786;2023-04-24T10:48:30;19.70;99.90
16976;DHT22;8604;48.148;-1.786;2023-04-24T10:50:59;19.30;99.90
16976;DHT22;8604;48.148;-1.786;2023-04-24T10:53:29;18.70;99.90
16976;DHT22;8604;48.148;-1.786;2023-04-24T10:56:03;18.20;99.90
16976;DHT22;8604;48.148;-1.786;2023-04-24T10:58:36;17.60;99.90
16976;DHT22;8604;48.148;-1.786;2023-04-24T11:01:06;17.30;99.90
16976;DHT22;8604;48.148;-1.786;2023-04-24T11:04:03;17.10;99.90
16976;DHT22;8604;48.148;-1.786;2023-04-24T11:06:33;17.00;99.90
16976;DHT22;8604;48.148;-1.786;2023-04-24T11:09:04;16.90;99.90
16976;DHT22;8604;48.148;-1.786;2023-04-24T11:11:36;16.90;99.90
16976;DHT22;8604;48.148;-1.786;2023-04-24T11:14:08;17.00;99.90
16976;DHT22;8604;48.148;-1.786;2023-04-24T11:16:41;17.00;99.90
16976;DHT22;8604;48.148;-1.786;2023-04-24T11:19:20;17.10;99.90
16976;DHT22;8604;48.148;-1.786;2023-04-24T11:21:57;17.30;99.90
16976;DHT22;8604;48.148;-1.786;2023-04-24T11:24:28;17.60;99.90
16976;DHT22;8604;48.148;-1.786;2023-04-24T11:27:05;18.10;99.90
16976;DHT22;8604;48.148;-1.786;2023-04-24T11:29:41;18.90;99.90
16976;DHT22;8604;48.148;-1.786;2023-04-24T11:32:17;19.50;99.90
16976;DHT22;8604;48.148;-1.786;2023-04-24T11:34:47;19.60;99.90
16976;DHT22;8604;48.148;-1.786;2023-04-24T11:37:17;19.50;99.90
16976;DHT22;8604;48.148;-1.786;2023-04-24T11:39:45;19.40;99.90
16976;DHT22;8604;48.148;-1.786;2023-04-24T11:42:16;19.20;99.90
16976;DHT22;8604;48.148;-1.786;2023-04-24T11:44:45;19.20;99.90
16976;DHT22;8604;48.148;-1.786;2023-04-24T11:47:14;18.90;99.90
16976;DHT22;8604;48.148;-1.786;2023-04-24T11:49:43;18.70;99.90
16976;DHT22;8604;48.148;-1.786;2023-04-24T11:52:15;18.70;99.90
16976;DHT22;8604;48.148;-1.786;2023-04-24T11:54:48;18.20;99.90
16976;DHT22;8604;48.148;-1.786;2023-04-24T11:57:21;17.80;99.90
16976;DHT22;8604;48.148;-1.786;2023-04-24T11:59:49;17.70;99.90
16976;DHT22;8604;48.148;-1.786;2023-04-24T12:02:22;17.70;99.90
16976;DHT22;8604;48.148;-1.786;2023-04-24T12:04:58;17.70;99.90
16976;DHT22;8604;48.148;-1.786;2023-04-24T12:07:27;17.80;99.90
16976;DHT22;8604;48.148;-1.786;2023-04-24T12:09:57;18.00;99.90
16976;DHT22;8604;48.148;-1.786;2023-04-24T12:12:28;18.20;99.90
16976;DHT22;8604;48.148;-1.786;2023-04-24T12:14:58;18.20;99.90
16976;DHT22;8604;48.148;-1.786;2023-04-24T12:17:29;18.10;99.90
16976;DHT22;8604;48.148;-1.786;2023-04-24T12:19:58;18.00;99.90
16976;DHT22;8604;48.148;-1.786;2023-04-24T12:22:42;17.80;99.90
16976;DHT22;8604;48.148;-1.786;2023-04-24T12:25:10;17.80;99.90
16976;DHT22;8604;48.148;-1.786;2023-04-24T12:27:41;17.70;99.90
16976;DHT22;8604;48.148;-1.786;2023-04-24T12:30:12;17.80;99.90
16976;DHT22;8604;48.148;-1.786;2023-04-24T12:32:42;17.80;99.90
16976;DHT22;8604;48.148;-1.786;2023-04-24T12:35:11;17.70;99.90
16976;DHT22;8604;48.148;-1.786;2023-04-24T12:37:42;17.50;99.90
16976;DHT22;8604;48.148;-1.786;2023-04-24T12:40:14;17.50;99.90
16976;DHT22;8604;48.148;-1.786;2023-04-24T12:42:45;17.70;99.90
16976;DHT22;8604;48.148;-1.786;2023-04-24T12:45:15;17.90;99.90
16976;DHT22;8604;48.148;-1.786;2023-04-24T12:47:45;18.00;99.90
16976;DHT22;8604;48.148;-1.786;2023-04-24T12:50:14;18.20;99.90
16976;DHT22;8604;48.148;-1.786;2023-04-24T12:52:44;18.10;99.90
16976;DHT22;8604;48.148;-1.786;2023-04-24T12:55:12;18.00;99.90
16976;DHT22;8604;48.148;-1.786;2023-04-24T12:57:41;18.20;99.90
16976;DHT22;8604;48.148;-1.786;2023-04-24T13:00:12;18.20;99.90
16976;DHT22;8604;48.148;-1.786;2023-04-24T13:02:40;18.20;99.90
16976;DHT22;8604;48.148;-1.786;2023-04-24T13:05:09;18.30;99.90
16976;DHT22;8604;48.148;-1.786;2023-04-24T13:07:38;18.20;99.90
16976;DHT22;8604;48.148;-1.786;2023-04-24T13:10:08;18.20;99.90
16976;DHT22;8604;48.148;-1.786;2023-04-24T13:12:37;18.30;99.90
16976;DHT22;8604;48.148;-1.786;2023-04-24T13:15:06;18.30;99.90
16976;DHT22;8604;48.148;-1.786;2023-04-24T13:17:36;18.20;99.90
16976;DHT22;8604;48.148;-1.786;2023-04-24T13:20:06;18.00;99.90
16976;DHT22;8604;48.148;-1.786;2023-04-24T13:22:35;17.80;99.90
16976;DHT22;8604;48.148;-1.786;2023-04-24T13:25:05;17.80;99.90
16976;DHT22;8604;48.148;-1.786;2023-04-24T13:27:34;17.80;99.90
16976;DHT22;8604;48.148;-1.786;2023-04-24T13:30:04;18.00;99.90
16976;DHT22;8604;48.148;-1.786;2023-04-24T13:32:33;18.30;99.90
16976;DHT22;8604;48.148;-1.786;2023-04-24T13:35:04;18.50;99.90
16976;DHT22;8604;48.148;-1.786;2023-04-24T13:37:33;18.70;99.90
16976;DHT22;8604;48.148;-1.786;2023-04-24T13:40:01;18.80;99.90
16976;DHT22;8604;48.148;-1.786;2023-04-24T13:42:33;18.80;99.90
16976;DHT22;8604;48.148;-1.786;2023-04-24T13:45:01;19.00;99.90
16976;DHT22;8604;48.148;-1.786;2023-04-24T13:47:51;18.90;99.90
16976;DHT22;8604;48.148;-1.786;2023-04-24T13:50:22;19.00;99.90
16976;DHT22;8604;48.148;-1.786;2023-04-24T13:52:51;19.10;99.90
16976;DHT22;8604;48.148;-1.786;2023-04-24T13:55:20;19.10;99.90
16976;DHT22;8604;48.148;-1.786;2023-04-24T13:57:49;18.90;99.90
16976;DHT22;8604;48.148;-1.786;2023-04-24T14:00:19;18.90;99.90
16976;DHT22;8604;48.148;-1.786;2023-04-24T14:02:48;18.90;99.90
16976;DHT22;8604;48.148;-1.786;2023-04-24T14:05:17;18.70;99.90
16976;DHT22;8604;48.148;-1.786;2023-04-24T14:07:47;18.60;99.90
16976;DHT22;8604;48.148;-1.786;2023-04-24T14:10:16;18.40;99.90
16976;DHT22;8604;48.148;-1.786;2023-04-24T14:12:44;18.30;99.90
16976;DHT22;8604;48.148;-1.786;2023-04-24T14:15:13;18.10;99.90
16976;DHT22;8604;48.148;-1.786;2023-04-24T14:17:42;17.80;99.90
16976;DHT22;8604;48.148;-1.786;2023-04-24T14:20:12;17.40;99.90
16976;DHT22;8604;48.148;-1.786;2023-04-24T14:22:41;17.00;99.90
16976;DHT22;8604;48.148;-1.786;2023-04-24T14:25:10;16.60;99.90
16976;DHT22;8604;48.148;-1.786;2023-04-24T14:27:39;16.40;99.90
16976;DHT22;8604;48.148;-1.786;2023-04-24T14:30:08;16.20;99.90
16976;DHT22;8604;48.148;-1.786;2023-04-24T14:32:38;16.20;99.90
16976;DHT22;8604;48.148;-1.786;2023-04-24T14:35:07;16.40;99.90
16976;DHT22;8604;48.148;-1.786;2023-04-24T14:37:36;16.50;99.90
16976;DHT22;8604;48.148;-1.786;2023-04-24T14:40:05;16.70;99.90
16976;DHT22;8604;48.148;-1.786;2023-04-24T14:42:56;16.70;99.90
16976;DHT22;8604;48.148;-1.786;2023-04-24T14:45:25;16.60;99.90
16976;DHT22;8604;48.148;-1.786;2023-04-24T14:47:54;16.60;99.90
16976;DHT22;8604;48.148;-1.786;2023-04-24T14:50:23;16.40;99.90
16976;DHT22;8604;48.148;-1.786;2023-04-24T14:52:55;16.30;99.90
16976;DHT22;8604;48.148;-1.786;2023-04-24T14:55:24;16.40;99.90
16976;DHT22;8604;48.148;-1.786;2023-04-24T14:57:53;16.30;99.90
16976;DHT22;8604;48.148;-1.786;2023-04-24T15:00:23;16.30;99.90
16976;DHT22;8604;48.148;-1.786;2023-04-24T15:02:52;16.40;99.90
16976;DHT22;8604;48.148;-1.786;2023-04-24T15:05:22;16.20;99.90
16976;DHT22;8604;48.148;-1.786;2023-04-24T15:07:52;16.20;99.90
16976;DHT22;8604;48.148;-1.786;2023-04-24T15:10:24;16.20;99.90
16976;DHT22;8604;48.148;-1.786;2023-04-24T15:12:53;16.30;99.90
16976;DHT22;8604;48.148;-1.786;2023-04-24T15:15:24;16.30;99.90
16976;DHT22;8604;48.148;-1.786;2023-04-24T15:17:52;16.40;99.90
16976;DHT22;8604;48.148;-1.786;2023-04-24T15:20:23;16.50;99.90
16976;DHT22;8604;48.148;-1.786;2023-04-24T15:22:51;16.50;99.90
16976;DHT22;8604;48.148;-1.786;2023-04-24T15:25:20;16.50;99.90
16976;DHT22;8604;48.148;-1.786;2023-04-24T15:27:48;16.40;99.90
16976;DHT22;8604;48.148;-1.786;2023-04-24T15:30:19;16.30;99.90
16976;DHT22;8604;48.148;-1.786;2023-04-24T15:33:04;16.20;99.90
16976;DHT22;8604;48.148;-1.786;2023-04-24T15:35:33;16.20;99.90
16976;DHT22;8604;48.148;-1.786;2023-04-24T15:38:02;16.20;99.90
16976;DHT22;8604;48.148;-1.786;2023-04-24T15:40:32;16.30;99.90
16976;DHT22;8604;48.148;-1.786;2023-04-24T15:43:00;16.30;99.90
16976;DHT22;8604;48.148;-1.786;2023-04-24T15:45:29;16.30;99.90
16976;DHT22;8604;48.148;-1.786;2023-04-24T15:48:00;16.30;99.90
16976;DHT22;8604;48.148;-1.786;2023-04-24T15:50:30;16.30;99.90
16976;DHT22;8604;48.148;-1.786;2023-04-24T15:52:59;16.40;99.90
16976;DHT22;8604;48.148;-1.786;2023-04-24T15:55:29;16.40;99.90
16976;DHT22;8604;48.148;-1.786;2023-04-24T15:57:58;16.30;99.90
16976;DHT22;8604;48.148;-1.786;2023-04-24T16:00:27;16.20;99.90
16976;DHT22;8604;48.148;-1.786;2023-04-24T16:03:00;16.10;99.90
16976;DHT22;8604;48.148;-1.786;2023-04-24T16:05:45;16.10;99.90
16976;DHT22;8604;48.148;-1.786;2023-04-24T16:08:13;16.00;99.90
16976;DHT22;8604;48.148;-1.786;2023-04-24T16:10:41;16.00;99.90
16976;DHT22;8604;48.148;-1.786;2023-04-24T16:13:19;15.90;99.90
16976;DHT22;8604;48.148;-1.786;2023-04-24T16:15:49;15.90;99.90
16976;DHT22;8604;48.148;-1.786;2023-04-24T16:18:18;15.90;99.90
16976;DHT22;8604;48.148;-1.786;2023-04-24T16:20:48;15.90;99.90